createdAt,value
2018-08-17T00:02:13.131Z,8.27
2018-08-17T00:06:16.227Z,7.17
2018-08-17T00:10:19.472Z,8.00
2018-08-17T00:14:22.563Z,6.53
2018-08-17T00:18:25.677Z,6.60
2018-08-17T00:22:28.785Z,7.37
2018-08-17T00:26:31.917Z,7.33
2018-08-17T00:30:35.195Z,8.00
2018-08-17T00:34:38.328Z,7.63
2018-08-17T00:38:41.408Z,8.10
2018-08-17T00:42:44.625Z,7.83
2018-08-17T00:46:47.716Z,9.70
2018-08-17T00:50:50.932Z,9.30
2018-08-17T00:54:54.016Z,7.63
2018-08-17T00:58:57.151Z,8.57
2018-08-17T01:03:00.290Z,9.50
2018-08-17T01:07:03.651Z,10.37
2018-08-17T01:11:06.757Z,10.10
2018-08-17T01:15:09.864Z,8.30
2018-08-17T01:19:12.947Z,11.27
2018-08-17T01:23:16.077Z,9.93
2018-08-17T01:27:19.163Z,9.70
2018-08-17T01:31:22.656Z,11.33
2018-08-17T01:35:25.740Z,11.40
2018-08-17T01:39:28.894Z,11.50
2018-08-17T01:43:31.945Z,13.10
2018-08-17T01:47:35.156Z,13.90
2018-08-17T01:51:38.240Z,12.10
2018-08-17T01:55:41.360Z,13.10
2018-08-17T01:59:44.440Z,13.20
2018-08-17T02:03:47.668Z,12.10
2018-08-17T02:07:50.783Z,14.73
2018-08-17T02:11:53.916Z,14.13
2018-08-17T02:15:57.019Z,14.07
2018-08-17T02:20:00.170Z,14.17
2018-08-17T02:24:03.237Z,12.87
2018-08-17T02:28:06.365Z,12.47
2018-08-17T02:32:09.681Z,12.40
2018-08-17T02:36:12.803Z,13.00
2018-08-17T02:40:15.883Z,12.87
2018-08-17T02:44:19.008Z,13.27
2018-08-17T02:48:22.113Z,11.27
2018-08-17T02:52:25.345Z,11.60
2018-08-17T02:56:28.456Z,11.60
2018-08-17T03:00:31.579Z,12.33
2018-08-17T03:04:34.680Z,11.40
2018-08-17T03:08:37.909Z,10.83
2018-08-17T03:12:40.997Z,10.23
2018-08-17T03:16:44.139Z,10.50
2018-08-17T03:20:47.225Z,10.70
2018-08-17T03:24:50.456Z,10.43
2018-08-17T03:28:53.556Z,10.03
2018-08-17T03:32:57.000Z,10.00
2018-08-17T03:37:00.089Z,9.60
2018-08-17T03:41:03.288Z,10.80
2018-08-17T03:45:06.388Z,9.10
2018-08-17T03:49:09.513Z,9.40
2018-08-17T03:53:12.628Z,9.07
2018-08-17T03:57:15.768Z,10.90
2018-08-17T04:01:18.855Z,13.13
2018-08-17T04:05:21.994Z,13.07
2018-08-17T04:09:25.174Z,13.33
2018-08-17T04:13:28.314Z,10.30
2018-08-17T04:17:31.387Z,11.80
2018-08-17T04:21:34.510Z,12.50
2018-08-17T04:25:37.608Z,12.70
2018-08-17T04:29:40.752Z,14.00
2018-08-17T04:33:44.088Z,12.00
2018-08-17T04:37:47.221Z,11.93
2018-08-17T04:41:50.307Z,12.40
2018-08-17T04:45:53.429Z,14.13
2018-08-17T04:49:56.523Z,11.53
2018-08-17T04:53:59.660Z,11.03
2018-08-17T04:58:02.759Z,10.63
2018-08-17T05:02:05.880Z,11.47
2018-08-17T05:06:08.961Z,10.80
2018-08-17T05:10:12.177Z,11.83
2018-08-17T05:14:15.274Z,10.30
2018-08-17T05:18:18.449Z,11.43
2018-08-17T05:22:21.532Z,13.57
2018-08-17T05:26:24.667Z,12.90
2018-08-17T05:30:27.773Z,13.00
2018-08-17T05:34:31.108Z,12.00
2018-08-17T05:38:34.192Z,11.00
2018-08-17T05:42:37.901Z,11.30
2018-08-17T05:46:40.988Z,11.07
2018-08-17T05:50:44.205Z,11.00
2018-08-17T05:54:47.292Z,13.33
2018-08-17T05:58:50.644Z,10.43
2018-08-17T06:02:53.765Z,12.27
2018-08-17T06:06:57.064Z,12.57
2018-08-17T06:11:00.213Z,19.33
2018-08-17T06:15:03.736Z,13.07
2018-08-17T06:19:06.891Z,13.77
2018-08-17T06:23:09.965Z,12.30
2018-08-17T06:27:13.054Z,18.17
2018-08-17T06:31:16.293Z,15.10
2018-08-17T06:35:19.712Z,15.10
2018-08-17T06:39:22.868Z,15.10
2018-08-17T06:43:25.960Z,14.33
2018-08-17T06:47:29.363Z,18.37
2018-08-17T06:51:32.460Z,15.47
2018-08-17T06:55:35.676Z,17.77
2018-08-17T06:59:38.780Z,18.37
2018-08-17T07:03:41.912Z,17.63
2018-08-17T07:07:45.020Z,16.13
2018-08-17T07:11:48.143Z,19.63
2018-08-17T07:15:51.296Z,20.13
2018-08-17T07:19:54.421Z,19.20
2018-08-17T07:23:57.668Z,19.70
2018-08-17T07:28:00.835Z,21.43
2018-08-17T07:32:03.931Z,19.17
2018-08-17T07:36:07.196Z,17.97
2018-08-17T07:40:10.384Z,15.90
2018-08-17T07:44:13.548Z,16.90
2018-08-17T07:48:16.764Z,14.80
2018-08-17T07:52:19.864Z,16.17
2018-08-17T07:56:22.971Z,15.70
2018-08-17T08:00:26.201Z,14.77
2018-08-17T08:04:29.297Z,14.37
2018-08-17T08:08:32.520Z,14.57
2018-08-17T08:12:35.640Z,13.50
2018-08-17T08:16:38.914Z,14.67
2018-08-17T08:20:43.604Z,14.50
2018-08-17T08:24:46.839Z,14.80
2018-08-17T08:28:49.936Z,14.13
2018-08-17T08:32:53.060Z,13.70
2018-08-17T08:36:56.407Z,13.43
2018-08-17T08:40:59.637Z,16.03
2018-08-17T08:45:02.760Z,13.13
2018-08-17T08:49:06.293Z,10.23
2018-08-17T08:53:09.933Z,9.43
2018-08-17T08:57:13.174Z,8.73
2018-08-17T09:01:16.292Z,7.73
2018-08-17T09:05:19.456Z,7.67
2018-08-17T09:09:22.575Z,7.20
2018-08-17T09:13:25.709Z,5.57
2018-08-17T09:17:28.872Z,5.47
2018-08-17T09:21:32.107Z,5.50
2018-08-17T09:25:35.214Z,4.10
2018-08-17T09:29:38.340Z,4.37
2018-08-17T09:33:41.439Z,3.63
2018-08-17T09:37:44.903Z,5.03
2018-08-17T09:41:48.142Z,5.00
2018-08-17T09:45:51.212Z,4.60
2018-08-17T09:49:54.330Z,4.47
2018-08-17T09:53:57.552Z,2.90
2018-08-17T09:58:00.635Z,4.50
2018-08-17T10:02:09.620Z,3.43
2018-08-17T10:06:17.916Z,3.70
2018-08-17T10:10:22.557Z,2.93
2018-08-17T10:14:25.659Z,2.77
2018-08-17T10:18:36.033Z,4.73
2018-08-17T10:22:39.137Z,4.07
2018-08-17T10:26:43.939Z,3.33
2018-08-17T10:30:47.036Z,2.70
2018-08-17T10:34:50.286Z,1.90
2018-08-17T10:38:53.532Z,2.70
2018-08-17T10:42:57.658Z,1.87
2018-08-17T10:47:00.780Z,3.80
2018-08-17T10:51:04.000Z,2.40
2018-08-17T10:55:07.093Z,2.27
2018-08-17T10:59:16.860Z,2.47
2018-08-17T11:03:19.949Z,2.87
2018-08-17T11:07:29.297Z,2.67
2018-08-17T11:11:32.412Z,1.90
2018-08-17T11:15:35.622Z,1.57
2018-08-17T11:19:38.692Z,2.60
2018-08-17T11:23:41.809Z,1.93
2018-08-17T11:27:44.884Z,2.20
2018-08-17T11:31:49.184Z,1.93
2018-08-17T11:35:52.516Z,2.67
2018-08-17T11:40:00.017Z,3.07
2018-08-17T11:44:07.345Z,3.20
2018-08-17T11:48:11.657Z,2.57
2018-08-17T11:52:14.748Z,1.80
2018-08-17T11:56:17.963Z,2.27
2018-08-17T12:00:21.044Z,2.20
2018-08-17T12:04:24.253Z,1.73
2018-08-17T12:08:27.430Z,1.30
2018-08-17T12:12:31.952Z,1.33
2018-08-17T12:16:35.025Z,1.30
2018-08-17T12:20:38.231Z,2.17
2018-08-17T12:24:41.380Z,1.43
2018-08-17T12:28:44.519Z,1.53
2018-08-17T12:32:47.597Z,1.50
2018-08-17T12:36:50.758Z,1.70
2018-08-17T12:40:55.181Z,1.40
2018-08-17T12:45:02.616Z,1.13
2018-08-17T12:49:05.733Z,1.50
2018-08-17T12:53:08.856Z,0.87
2018-08-17T12:57:11.985Z,1.20
2018-08-17T13:01:15.095Z,0.70
2018-08-17T13:05:18.180Z,0.90
2018-08-17T13:09:21.548Z,1.30
2018-08-17T13:13:24.628Z,1.00
2018-08-17T13:17:31.988Z,1.20
2018-08-17T13:21:35.169Z,1.17
2018-08-17T13:25:38.589Z,1.40
2018-08-17T13:29:41.745Z,1.37
2018-08-17T13:33:44.929Z,1.13
2018-08-17T13:37:48.009Z,1.13
2018-08-17T13:41:51.341Z,1.23
2018-08-17T13:45:54.407Z,1.43
2018-08-17T13:49:57.619Z,1.20
2018-08-17T13:54:00.708Z,1.60
2018-08-17T13:58:03.827Z,1.20
2018-08-17T14:02:07.067Z,1.10
2018-08-17T14:06:10.224Z,1.57
2018-08-17T14:10:13.457Z,1.40
2018-08-17T14:14:16.427Z,1.40
2018-08-17T14:18:19.507Z,1.43
2018-08-17T14:22:22.712Z,1.30
2018-08-17T14:26:25.735Z,1.43
2018-08-17T14:30:28.917Z,1.33
2018-08-17T14:34:32.024Z,1.80
2018-08-17T14:38:36.451Z,1.70
2018-08-17T14:42:40.088Z,1.50
2018-08-17T14:46:43.299Z,1.10
2018-08-17T14:50:46.373Z,1.67
2018-08-17T14:54:49.472Z,1.13
2018-08-17T14:58:52.539Z,1.60
2018-08-17T15:02:55.756Z,1.20
2018-08-17T15:06:58.836Z,1.40
2018-08-17T15:11:01.960Z,1.57
2018-08-17T15:15:05.060Z,1.50
2018-08-17T15:19:08.188Z,1.20
2018-08-17T15:23:11.267Z,1.07
2018-08-17T15:27:14.461Z,1.27
2018-08-17T15:31:17.560Z,1.23
2018-08-17T15:35:20.708Z,1.40
2018-08-17T15:39:23.788Z,1.37
2018-08-17T15:43:27.457Z,1.30
2018-08-17T15:47:33.065Z,1.37
2018-08-17T15:51:36.300Z,1.50
2018-08-17T15:55:39.356Z,1.17
2018-08-17T15:59:42.477Z,1.47
2018-08-17T16:03:45.561Z,1.33
2018-08-17T16:07:48.681Z,1.10
2018-08-17T16:11:51.763Z,1.10
2018-08-17T16:15:54.871Z,1.30
2018-08-17T16:19:57.940Z,1.00
2018-08-17T16:24:01.797Z,1.60
2018-08-17T16:28:04.872Z,1.43
2018-08-17T16:32:08.100Z,1.60
2018-08-17T16:36:11.188Z,1.30
2018-08-17T16:40:14.449Z,1.63
2018-08-17T16:44:17.628Z,1.50
2018-08-17T16:48:21.404Z,2.40
2018-08-17T16:52:24.497Z,2.17
2018-08-17T16:56:27.596Z,1.30
2018-08-17T17:00:30.783Z,1.40
2018-08-17T17:04:37.312Z,1.97
2018-08-17T17:08:40.345Z,1.50
2018-08-17T17:12:43.448Z,1.83
2018-08-17T17:16:47.539Z,1.80
2018-08-17T17:20:50.750Z,1.50
2018-08-17T17:24:53.936Z,1.60
2018-08-17T17:28:57.095Z,1.50
2018-08-17T17:33:00.192Z,1.70
2018-08-17T17:37:03.301Z,1.00
2018-08-17T17:41:06.400Z,1.87
2018-08-17T17:45:09.747Z,1.77
2018-08-17T17:49:12.820Z,1.87
2018-08-17T17:53:15.920Z,1.83
2018-08-17T17:57:18.995Z,2.33
2018-08-17T18:01:22.126Z,2.30
2018-08-17T18:05:25.209Z,1.90
2018-08-17T18:09:28.393Z,1.40
2018-08-17T18:13:31.464Z,1.63
2018-08-17T18:17:34.661Z,1.97
2018-08-17T18:21:38.628Z,1.60
2018-08-17T18:25:41.731Z,1.80
2018-08-17T18:29:44.825Z,2.50
2018-08-17T18:33:47.948Z,1.43
2018-08-17T18:37:51.037Z,2.13
2018-08-17T18:41:54.233Z,2.10
2018-08-17T18:45:57.435Z,1.90
2018-08-17T18:50:00.548Z,1.93
2018-08-17T18:54:03.945Z,2.23
2018-08-17T18:58:07.045Z,2.00
2018-08-17T19:02:10.119Z,2.80
2018-08-17T19:06:13.331Z,2.70
2018-08-17T19:10:16.407Z,2.50
2018-08-17T19:14:19.940Z,3.20
2018-08-17T19:18:23.876Z,3.03
2018-08-17T19:22:26.972Z,3.47
2018-08-17T19:26:30.048Z,2.80
2018-08-17T19:30:33.162Z,3.33
2018-08-17T19:34:36.240Z,3.00
2018-08-17T19:38:41.356Z,3.63
2018-08-17T19:42:44.448Z,4.50
2018-08-17T19:46:47.823Z,4.53
2018-08-17T19:50:50.904Z,5.00
2018-08-17T19:54:54.020Z,5.57
2018-08-17T19:58:57.116Z,4.70
2018-08-17T20:03:00.232Z,5.17
2018-08-17T20:07:03.317Z,5.70
2018-08-17T20:11:06.517Z,5.67
2018-08-17T20:15:09.652Z,6.20
2018-08-17T20:19:12.816Z,5.27
2018-08-17T20:23:15.863Z,4.60
2018-08-17T20:27:19.860Z,5.73
2018-08-17T20:31:22.970Z,5.60
2018-08-17T20:35:26.212Z,5.97
2018-08-17T20:39:29.280Z,4.90
2018-08-17T20:43:32.275Z,5.67
2018-08-17T20:47:36.372Z,5.47
2018-08-17T20:51:40.264Z,7.83
2018-08-17T20:55:43.336Z,6.70
2018-08-17T20:59:46.534Z,7.10
2018-08-17T21:03:49.608Z,6.27
2018-08-17T21:07:52.730Z,6.00
2018-08-17T21:11:55.812Z,5.90
2018-08-17T21:15:58.939Z,5.70
2018-08-17T21:20:02.035Z,6.67
2018-08-17T21:24:05.148Z,5.97
2018-08-17T21:28:08.224Z,6.00
2018-08-17T21:32:11.433Z,6.77
2018-08-17T21:36:14.525Z,6.43
2018-08-17T21:40:23.864Z,6.40
2018-08-17T21:44:26.940Z,5.97
2018-08-17T21:48:30.513Z,6.63
2018-08-17T21:52:33.588Z,5.80
2018-08-17T21:56:36.816Z,6.50
2018-08-17T22:00:39.901Z,6.90
2018-08-17T22:04:43.015Z,6.90
2018-08-17T22:08:46.084Z,6.03
2018-08-17T22:12:49.328Z,6.67
2018-08-17T22:16:52.399Z,6.30
2018-08-17T22:20:55.527Z,6.97
2018-08-17T22:24:59.307Z,7.23
2018-08-17T22:29:02.512Z,7.20
2018-08-17T22:33:05.779Z,8.10
2018-08-17T22:37:08.980Z,8.03
2018-08-17T22:41:12.048Z,7.60
2018-08-17T22:45:15.205Z,8.10
2018-08-17T22:49:18.480Z,9.33
2018-08-17T22:53:21.663Z,7.60
2018-08-17T22:57:25.252Z,9.10
2018-08-17T23:01:28.383Z,8.30
2018-08-17T23:05:34.920Z,6.40
2018-08-17T23:09:38.200Z,5.57
2018-08-17T23:13:41.280Z,6.53
2018-08-17T23:18:00.813Z,7.23
2018-08-17T23:22:03.893Z,8.13
2018-08-17T23:26:07.132Z,5.30
2018-08-17T23:30:10.211Z,6.10
2018-08-17T23:34:13.404Z,7.30
2018-08-17T23:38:16.488Z,9.03
2018-08-17T23:42:19.648Z,6.67
2018-08-17T23:46:22.725Z,5.47
2018-08-17T23:50:26.053Z,6.40
2018-08-17T23:54:29.128Z,8.30
2018-08-17T23:58:32.319Z,7.07
